sensor_id;sensor_type;location;lat;lon;timestamp;pressure;altitude;pressure_sealevel;temperature;humidity
39699;BME280;25372;50.582;12.250;2023-02-03T00:04:24;100542.63;;;1.52;100.00
39699;BME280;25372;50.582;12.250;2023-02-03T00:14:45;100531.94;;;1.55;100.00
39699;BME280;25372;50.582;12.250;2023-02-03T00:25:07;100533.50;;;1.58;100.00
39699;BME280;25372;50.582;12.250;2023-02-03T00:35:28;100518.66;;;1.59;100.00
39699;BME280;25372;50.582;12.250;2023-02-03T00:45:52;100504.78;;;1.58;100.00
39699;BME280;25372;50.582;12.250;2023-02-03T00:56:13;100484.91;;;1.55;100.00
39699;BME280;25372;50.582;12.250;2023-02-03T01:06:35;100473.53;;;1.56;100.00
39699;BME280;25372;50.582;12.250;2023-02-03T01:16:55;100452.06;;;1.40;100.00
39699;BME280;25372;50.582;12.250;2023-02-03T01:27:18;100432.88;;;1.28;100.00
39699;BME280;25372;50.582;12.250;2023-02-03T01:37:40;100407.75;;;1.14;100.00
39699;BME280;25372;50.582;12.250;2023-02-03T01:48:02;100390.50;;;1.12;100.00
39699;BME280;25372;50.582;12.250;2023-02-03T01:58:27;100381.03;;;1.11;100.00
39699;BME280;25372;50.582;12.250;2023-02-03T02:08:52;100331.44;;;1.11;100.00
39699;BME280;25372;50.582;12.250;2023-02-03T02:19:34;100310.47;;;1.24;100.00
39699;BME280;25372;50.582;12.250;2023-02-03T02:30:22;100306.50;;;1.18;100.00
39699;BME280;25372;50.582;12.250;2023-02-03T02:40:52;100280.41;;;1.42;100.00
39699;BME280;25372;50.582;12.250;2023-02-03T02:51:15;100255.72;;;1.46;100.00
39699;BME280;25372;50.582;12.250;2023-02-03T03:01:37;100225.03;;;1.84;100.00
39699;BME280;25372;50.582;12.250;2023-02-03T03:12:05;100191.00;;;2.40;100.00
39699;BME280;25372;50.582;12.250;2023-02-03T03:22:33;100169.34;;;2.82;100.00
39699;BME280;25372;50.582;12.250;2023-02-03T03:32:55;100165.22;;;3.22;100.00
39699;BME280;25372;50.582;12.250;2023-02-03T03:43:20;100163.06;;;3.27;100.00
39699;BME280;25372;50.582;12.250;2023-02-03T03:53:44;100159.16;;;3.42;100.00
39699;BME280;25372;50.582;12.250;2023-02-03T04:04:09;100160.66;;;3.66;100.00
39699;BME280;25372;50.582;12.250;2023-02-03T04:14:33;100105.81;;;3.94;100.00
39699;BME280;25372;50.582;12.250;2023-02-03T04:24:55;100112.19;;;4.01;100.00
39699;BME280;25372;50.582;12.250;2023-02-03T04:35:17;100092.06;;;4.11;100.00
39699;BME280;25372;50.582;12.250;2023-02-03T04:45:39;100086.97;;;4.29;100.00
39699;BME280;25372;50.582;12.250;2023-02-03T04:56:00;100082.44;;;4.31;100.00
39699;BME280;25372;50.582;12.250;2023-02-03T05:06:23;100064.72;;;4.24;100.00
39699;BME280;25372;50.582;12.250;2023-02-03T05:16:44;100052.84;;;4.29;100.00
39699;BME280;25372;50.582;12.250;2023-02-03T05:27:06;100034.22;;;4.42;100.00
39699;BME280;25372;50.582;12.250;2023-02-03T05:37:27;99994.44;;;4.47;100.00
39699;BME280;25372;50.582;12.250;2023-02-03T05:47:49;99997.34;;;4.44;100.00
39699;BME280;25372;50.582;12.250;2023-02-03T05:58:10;100020.00;;;4.54;100.00
39699;BME280;25372;50.582;12.250;2023-02-03T06:08:32;100006.97;;;4.63;100.00
39699;BME280;25372;50.582;12.250;2023-02-03T06:18:54;99994.56;;;4.65;100.00
39699;BME280;25372;50.582;12.250;2023-02-03T06:29:18;99971.59;;;4.67;100.00
39699;BME280;25372;50.582;12.250;2023-02-03T06:39:39;99973.09;;;4.79;100.00
39699;BME280;25372;50.582;12.250;2023-02-03T06:50:01;99963.72;;;4.77;100.00
39699;BME280;25372;50.582;12.250;2023-02-03T07:00:22;99944.63;;;4.75;100.00
39699;BME280;25372;50.582;12.250;2023-02-03T07:10:44;99900.56;;;4.68;100.00
39699;BME280;25372;50.582;12.250;2023-02-03T07:21:06;99900.41;;;4.80;100.00
39699;BME280;25372;50.582;12.250;2023-02-03T07:31:28;99879.72;;;4.95;100.00
39699;BME280;25372;50.582;12.250;2023-02-03T07:41:48;99874.03;;;4.99;100.00
39699;BME280;25372;50.582;12.250;2023-02-03T07:52:10;99849.72;;;4.97;100.00
39699;BME280;25372;50.582;12.250;2023-02-03T08:02:31;99859.75;;;4.84;100.00
39699;BME280;25372;50.582;12.250;2023-02-03T08:12:53;99844.44;;;4.79;100.00
39699;BME280;25372;50.582;12.250;2023-02-03T08:23:14;99825.97;;;4.89;100.00
39699;BME280;25372;50.582;12.250;2023-02-03T08:33:36;99828.56;;;4.99;100.00
39699;BME280;25372;50.582;12.250;2023-02-03T08:43:57;99825.94;;;4.99;100.00
39699;BME280;25372;50.582;12.250;2023-02-03T08:54:19;99798.84;;;4.98;100.00
39699;BME280;25372;50.582;12.250;2023-02-03T09:04:40;99802.97;;;5.01;100.00
39699;BME280;25372;50.582;12.250;2023-02-03T09:15:03;99774.06;;;5.01;100.00
39699;BME280;25372;50.582;12.250;2023-02-03T09:25:24;99753.97;;;5.10;100.00
39699;BME280;25372;50.582;12.250;2023-02-03T09:35:52;99748.81;;;5.00;100.00
39699;BME280;25372;50.582;12.250;2023-02-03T09:46:16;99705.84;;;5.09;100.00
39699;BME280;25372;50.582;12.250;2023-02-03T09:56:41;99683.19;;;5.08;100.00
39699;BME280;25372;50.582;12.250;2023-02-03T10:07:10;99661.63;;;5.22;100.00
39699;BME280;25372;50.582;12.250;2023-02-03T10:17:38;99637.53;;;5.27;100.00
39699;BME280;25372;50.582;12.250;2023-02-03T10:28:04;99637.53;;;5.27;100.00
39699;BME280;25372;50.582;12.250;2023-02-03T10:38:41;99613.03;;;5.27;100.00
39699;BME280;25372;50.582;12.250;2023-02-03T10:49:05;99591.97;;;5.45;100.00
39699;BME280;25372;50.582;12.250;2023-02-03T10:59:30;99577.56;;;5.57;100.00
39699;BME280;25372;50.582;12.250;2023-02-03T11:09:51;99570.03;;;5.62;100.00
39699;BME280;25372;50.582;12.250;2023-02-03T11:20:16;99564.31;;;5.75;100.00
39699;BME280;25372;50.582;12.250;2023-02-03T11:30:36;99544.28;;;5.74;100.00
39699;BME280;25372;50.582;12.250;2023-02-03T11:40:59;99579.25;;;5.66;100.00
39699;BME280;25372;50.582;12.250;2023-02-03T11:51:26;99550.34;;;5.74;100.00
39699;BME280;25372;50.582;12.250;2023-02-03T12:02:22;99520.47;;;5.84;100.00
39699;BME280;25372;50.582;12.250;2023-02-03T12:12:56;99412.66;;;6.08;100.00
39699;BME280;25372;50.582;12.250;2023-02-03T12:23:29;99467.28;;;6.23;100.00
39699;BME280;25372;50.582;12.250;2023-02-03T12:34:01;99477.97;;;6.13;100.00
39699;BME280;25372;50.582;12.250;2023-02-03T12:44:28;99483.06;;;6.31;100.00
39699;BME280;25372;50.582;12.250;2023-02-03T12:54:57;99442.91;;;6.29;100.00
39699;BME280;25372;50.582;12.250;2023-02-03T13:05:23;99430.94;;;6.26;100.00
39699;BME280;25372;50.582;12.250;2023-02-03T13:15:49;99527.75;;;5.98;100.00
39699;BME280;25372;50.582;12.250;2023-02-03T13:26:36;99560.81;;;4.53;100.00
39699;BME280;25372;50.582;12.250;2023-02-03T13:37:40;99546.91;;;4.79;100.00
39699;BME280;25372;50.582;12.250;2023-02-03T13:48:13;99544.00;;;4.64;100.00
39699;BME280;25372;50.582;12.250;2023-02-03T13:58:37;99539.13;;;4.69;100.00
39699;BME280;25372;50.582;12.250;2023-02-03T14:08:59;99556.91;;;4.75;100.00
39699;BME280;25372;50.582;12.250;2023-02-03T14:19:54;99571.69;;;4.58;100.00
39699;BME280;25372;50.582;12.250;2023-02-03T14:30:16;99593.09;;;4.71;98.16
39699;BME280;25372;50.582;12.250;2023-02-03T14:40:44;99614.19;;;4.80;97.75
39699;BME280;25372;50.582;12.250;2023-02-03T14:51:15;99603.97;;;4.95;99.61
39699;BME280;25372;50.582;12.250;2023-02-03T15:02:10;99615.75;;;4.91;99.67
39699;BME280;25372;50.582;12.250;2023-02-03T15:12:35;99615.16;;;4.97;98.33
39699;BME280;25372;50.582;12.250;2023-02-03T15:22:57;99641.22;;;5.16;92.04
39699;BME280;25372;50.582;12.250;2023-02-03T15:33:20;99677.94;;;5.08;92.39
39699;BME280;25372;50.582;12.250;2023-02-03T15:43:43;99673.88;;;5.32;89.55
39699;BME280;25372;50.582;12.250;2023-02-03T15:54:11;99675.44;;;5.24;91.53
39699;BME280;25372;50.582;12.250;2023-02-03T16:04:35;99652.84;;;5.14;90.86
39699;BME280;25372;50.582;12.250;2023-02-03T16:14:59;99698.72;;;5.19;91.60
39699;BME280;25372;50.582;12.250;2023-02-03T16:25:24;99711.22;;;5.44;87.63
39699;BME280;25372;50.582;12.250;2023-02-03T16:35:46;99733.47;;;5.31;87.84
39699;BME280;25372;50.582;12.250;2023-02-03T16:46:25;99733.41;;;5.23;89.55
39699;BME280;25372;50.582;12.250;2023-02-03T16:57:05;99758.69;;;5.42;85.63
39699;BME280;25372;50.582;12.250;2023-02-03T17:07:26;99761.31;;;5.42;87.31
39699;BME280;25372;50.582;12.250;2023-02-03T17:17:48;99763.91;;;5.60;83.72
39699;BME280;25372;50.582;12.250;2023-02-03T17:28:10;99784.63;;;5.63;82.47
39699;BME280;25372;50.582;12.250;2023-02-03T17:38:37;99781.50;;;5.41;85.72
39699;BME280;25372;50.582;12.250;2023-02-03T17:48:58;99775.13;;;5.62;82.42
39699;BME280;25372;50.582;12.250;2023-02-03T17:59:20;99805.22;;;5.68;81.14
39699;BME280;25372;50.582;12.250;2023-02-03T18:09:41;99815.34;;;5.81;77.23
39699;BME280;25372;50.582;12.250;2023-02-03T18:20:04;99834.88;;;5.78;73.16
39699;BME280;25372;50.582;12.250;2023-02-03T18:30:25;99857.53;;;5.71;73.96
39699;BME280;25372;50.582;12.250;2023-02-03T18:40:49;99856.59;;;5.44;77.92
39699;BME280;25372;50.582;12.250;2023-02-03T18:51:11;99859.94;;;5.46;77.91
39699;BME280;25372;50.582;12.250;2023-02-03T19:01:34;99867.06;;;5.36;78.78
39699;BME280;25372;50.582;12.250;2023-02-03T19:11:55;99870.47;;;5.18;80.27
39699;BME280;25372;50.582;12.250;2023-02-03T19:22:18;99866.06;;;5.19;80.52
39699;BME280;25372;50.582;12.250;2023-02-03T19:32:39;99849.84;;;5.23;79.40
39699;BME280;25372;50.582;12.250;2023-02-03T19:43:01;99855.50;;;5.29;78.72
39699;BME280;25372;50.582;12.250;2023-02-03T19:53:22;99897.25;;;5.04;81.96
39699;BME280;25372;50.582;12.250;2023-02-03T20:03:45;99880.31;;;4.61;89.43
39699;BME280;25372;50.582;12.250;2023-02-03T20:14:05;99888.56;;;4.18;97.08
39699;BME280;25372;50.582;12.250;2023-02-03T20:24:27;99895.28;;;4.31;95.85
39699;BME280;25372;50.582;12.250;2023-02-03T20:34:48;99905.16;;;3.99;100.00
39699;BME280;25372;50.582;12.250;2023-02-03T20:45:12;99912.47;;;3.66;100.00
39699;BME280;25372;50.582;12.250;2023-02-03T20:55:33;99920.47;;;3.65;100.00
39699;BME280;25372;50.582;12.250;2023-02-03T21:05:56;99935.22;;;3.56;100.00
39699;BME280;25372;50.582;12.250;2023-02-03T21:16:19;99913.69;;;3.43;100.00
39699;BME280;25372;50.582;12.250;2023-02-03T21:26:43;99944.22;;;3.73;100.00
39699;BME280;25372;50.582;12.250;2023-02-03T21:37:10;99946.00;;;3.92;100.00
39699;BME280;25372;50.582;12.250;2023-02-03T21:47:42;99924.47;;;3.79;100.00
39699;BME280;25372;50.582;12.250;2023-02-03T21:58:19;99981.03;;;3.81;100.00
39699;BME280;25372;50.582;12.250;2023-02-03T22:08:43;99988.50;;;3.76;100.00
39699;BME280;25372;50.582;12.250;2023-02-03T22:19:04;100026.69;;;3.69;100.00
39699;BME280;25372;50.582;12.250;2023-02-03T22:29:26;100040.50;;;3.71;100.00
39699;BME280;25372;50.582;12.250;2023-02-03T22:39:47;100038.22;;;3.57;100.00
39699;BME280;25372;50.582;12.250;2023-02-03T22:50:10;100048.00;;;3.45;100.00
39699;BME280;25372;50.582;12.250;2023-02-03T23:00:33;100096.00;;;3.45;100.00
39699;BME280;25372;50.582;12.250;2023-02-03T23:10:55;100072.44;;;3.45;100.00
39699;BME280;25372;50.582;12.250;2023-02-03T23:21:16;100094.47;;;3.43;100.00
39699;BME280;25372;50.582;12.250;2023-02-03T23:31:38;100099.03;;;3.41;100.00
39699;BME280;25372;50.582;12.250;2023-02-03T23:41:59;100111.00;;;3.43;100.00
39699;BME280;25372;50.582;12.250;2023-02-03T23:52:21;100155.75;;;3.52;100.00
